sensor_id;sensor_type;location;lat;lon;timestamp;pressure;altitude;pressure_sealevel;temperature;humidity
64340;BME280;63709;53.258;-8.814;2023-05-29T00:00:59;102947.84;;;14.32;100.00
64340;BME280;63709;53.258;-8.814;2023-05-29T00:03:25;102960.22;;;14.18;100.00
64340;BME280;63709;53.258;-8.814;2023-05-29T00:05:51;102955.19;;;14.12;100.00
64340;BME280;63709;53.258;-8.814;2023-05-29T00:08:16;102957.09;;;14.26;100.00
64340;BME280;63709;53.258;-8.814;2023-05-29T00:10:42;102963.44;;;14.25;100.00
64340;BME280;63709;53.258;-8.814;2023-05-29T00:13:07;102959.09;;;14.22;100.00
64340;BME280;63709;53.258;-8.814;2023-05-29T00:15:33;102956.41;;;13.91;100.00
64340;BME280;63709;53.258;-8.814;2023-05-29T00:18:00;102946.53;;;13.91;100.00
64340;BME280;63709;53.258;-8.814;2023-05-29T00:20:26;102941.69;;;13.98;100.00
64340;BME280;63709;53.258;-8.814;2023-05-29T00:22:51;102961.50;;;13.95;100.00
64340;BME280;63709;53.258;-8.814;2023-05-29T00:25:18;102958.81;;;13.79;100.00
64340;BME280;63709;53.258;-8.814;2023-05-29T00:27:44;102960.88;;;13.90;100.00
64340;BME280;63709;53.258;-8.814;2023-05-29T00:30:10;102940.78;;;13.82;100.00
64340;BME280;63709;53.258;-8.814;2023-05-29T00:32:36;102953.38;;;13.64;100.00
64340;BME280;63709;53.258;-8.814;2023-05-29T00:35:03;102959.94;;;13.58;100.00
64340;BME280;63709;53.258;-8.814;2023-05-29T00:37:30;102954.41;;;13.61;100.00
64340;BME280;63709;53.258;-8.814;2023-05-29T00:39:57;102939.09;;;13.63;100.00
64340;BME280;63709;53.258;-8.814;2023-05-29T00:42:22;102957.41;;;13.72;100.00
64340;BME280;63709;53.258;-8.814;2023-05-29T00:44:48;102965.28;;;13.42;100.00
64340;BME280;63709;53.258;-8.814;2023-05-29T00:47:13;102936.94;;;13.37;100.00
64340;BME280;63709;53.258;-8.814;2023-05-29T00:49:39;102972.56;;;13.56;100.00
64340;BME280;63709;53.258;-8.814;2023-05-29T00:52:05;102969.81;;;13.58;100.00
64340;BME280;63709;53.258;-8.814;2023-05-29T00:54:33;102959.66;;;13.47;100.00
64340;BME280;63709;53.258;-8.814;2023-05-29T00:56:59;102979.66;;;13.57;100.00
64340;BME280;63709;53.258;-8.814;2023-05-29T00:59:30;102962.81;;;13.38;100.00
64340;BME280;63709;53.258;-8.814;2023-05-29T01:01:59;102980.66;;;13.39;100.00
64340;BME280;63709;53.258;-8.814;2023-05-29T01:04:28;102986.47;;;13.29;100.00
64340;BME280;63709;53.258;-8.814;2023-05-29T01:06:55;102985.38;;;13.34;100.00
64340;BME280;63709;53.258;-8.814;2023-05-29T01:09:21;102981.91;;;13.31;100.00
64340;BME280;63709;53.258;-8.814;2023-05-29T01:12:29;102984.25;;;13.03;100.00
64340;BME280;63709;53.258;-8.814;2023-05-29T01:20:42;102973.84;;;13.14;100.00
64340;BME280;63709;53.258;-8.814;2023-05-29T01:28:48;102964.84;;;13.15;100.00
64340;BME280;63709;53.258;-8.814;2023-05-29T01:31:18;102984.41;;;13.17;100.00
64340;BME280;63709;53.258;-8.814;2023-05-29T01:33:52;102982.03;;;13.11;100.00
64340;BME280;63709;53.258;-8.814;2023-05-29T01:36:19;102978.94;;;13.19;100.00
64340;BME280;63709;53.258;-8.814;2023-05-29T01:38:44;102985.41;;;13.15;100.00
64340;BME280;63709;53.258;-8.814;2023-05-29T01:41:11;102986.38;;;13.14;100.00
64340;BME280;63709;53.258;-8.814;2023-05-29T01:43:39;102985.97;;;13.04;100.00
64340;BME280;63709;53.258;-8.814;2023-05-29T01:46:04;102987.69;;;13.05;100.00
64340;BME280;63709;53.258;-8.814;2023-05-29T01:48:30;102975.06;;;12.72;100.00
64340;BME280;63709;53.258;-8.814;2023-05-29T01:50:58;102983.97;;;12.73;100.00
64340;BME280;63709;53.258;-8.814;2023-05-29T01:53:25;102985.31;;;12.81;100.00
64340;BME280;63709;53.258;-8.814;2023-05-29T01:55:51;102979.50;;;12.91;100.00
64340;BME280;63709;53.258;-8.814;2023-05-29T01:58:17;102981.84;;;12.60;100.00
64340;BME280;63709;53.258;-8.814;2023-05-29T02:00:43;102976.50;;;12.79;100.00
64340;BME280;63709;53.258;-8.814;2023-05-29T02:03:09;102979.00;;;12.82;100.00
64340;BME280;63709;53.258;-8.814;2023-05-29T02:05:34;102977.41;;;12.61;100.00
64340;BME280;63709;53.258;-8.814;2023-05-29T02:08:00;102966.53;;;12.45;100.00
64340;BME280;63709;53.258;-8.814;2023-05-29T02:10:26;102985.13;;;12.67;100.00
64340;BME280;63709;53.258;-8.814;2023-05-29T02:12:52;102999.13;;;12.55;100.00
64340;BME280;63709;53.258;-8.814;2023-05-29T02:15:17;102997.41;;;12.71;100.00
64340;BME280;63709;53.258;-8.814;2023-05-29T02:17:43;103002.59;;;12.57;100.00
64340;BME280;63709;53.258;-8.814;2023-05-29T02:20:09;103000.25;;;12.49;100.00
64340;BME280;63709;53.258;-8.814;2023-05-29T02:22:42;103001.50;;;12.61;100.00
64340;BME280;63709;53.258;-8.814;2023-05-29T02:25:08;102994.84;;;12.51;100.00
64340;BME280;63709;53.258;-8.814;2023-05-29T02:27:33;102997.88;;;12.62;100.00
64340;BME280;63709;53.258;-8.814;2023-05-29T02:30:00;102994.28;;;12.44;100.00
64340;BME280;63709;53.258;-8.814;2023-05-29T02:32:26;102995.78;;;12.69;100.00
64340;BME280;63709;53.258;-8.814;2023-05-29T02:34:53;102970.41;;;12.40;100.00
64340;BME280;63709;53.258;-8.814;2023-05-29T02:37:19;102990.50;;;12.48;100.00
64340;BME280;63709;53.258;-8.814;2023-05-29T02:39:44;102994.56;;;12.38;100.00
64340;BME280;63709;53.258;-8.814;2023-05-29T02:42:11;103006.44;;;12.51;100.00
64340;BME280;63709;53.258;-8.814;2023-05-29T02:44:43;103006.34;;;12.34;100.00
64340;BME280;63709;53.258;-8.814;2023-05-29T02:47:09;103005.13;;;12.41;100.00
64340;BME280;63709;53.258;-8.814;2023-05-29T02:49:34;102997.03;;;12.43;100.00
64340;BME280;63709;53.258;-8.814;2023-05-29T02:52:00;103002.88;;;12.51;100.00
64340;BME280;63709;53.258;-8.814;2023-05-29T02:54:26;103006.34;;;12.53;100.00
64340;BME280;63709;53.258;-8.814;2023-05-29T02:56:55;102998.53;;;12.48;100.00
64340;BME280;63709;53.258;-8.814;2023-05-29T02:59:22;103004.47;;;12.55;100.00
64340;BME280;63709;53.258;-8.814;2023-05-29T03:01:48;103016.00;;;12.57;100.00
64340;BME280;63709;53.258;-8.814;2023-05-29T03:04:14;103007.66;;;12.44;100.00
64340;BME280;63709;53.258;-8.814;2023-05-29T03:06:40;103004.72;;;12.50;100.00
64340;BME280;63709;53.258;-8.814;2023-05-29T03:09:06;103017.66;;;12.59;100.00
64340;BME280;63709;53.258;-8.814;2023-05-29T03:11:32;103002.22;;;12.46;100.00
64340;BME280;63709;53.258;-8.814;2023-05-29T03:13:59;103027.28;;;12.45;100.00
64340;BME280;63709;53.258;-8.814;2023-05-29T03:16:26;103018.25;;;12.47;100.00
64340;BME280;63709;53.258;-8.814;2023-05-29T03:18:55;103017.94;;;12.34;100.00
64340;BME280;63709;53.258;-8.814;2023-05-29T03:21:22;103003.19;;;12.26;100.00
64340;BME280;63709;53.258;-8.814;2023-05-29T03:23:48;103016.72;;;12.42;100.00
64340;BME280;63709;53.258;-8.814;2023-05-29T03:26:14;103021.06;;;12.44;100.00
64340;BME280;63709;53.258;-8.814;2023-05-29T03:28:41;103018.59;;;12.40;100.00
64340;BME280;63709;53.258;-8.814;2023-05-29T03:31:06;103007.94;;;12.38;100.00
64340;BME280;63709;53.258;-8.814;2023-05-29T03:33:35;103012.44;;;12.38;100.00
64340;BME280;63709;53.258;-8.814;2023-05-29T03:36:05;103023.09;;;12.20;100.00
64340;BME280;63709;53.258;-8.814;2023-05-29T03:38:33;103012.75;;;12.31;100.00
64340;BME280;63709;53.258;-8.814;2023-05-29T03:40:59;103002.72;;;12.16;100.00
64340;BME280;63709;53.258;-8.814;2023-05-29T03:43:25;102994.31;;;11.86;100.00
64340;BME280;63709;53.258;-8.814;2023-05-29T03:45:52;103000.78;;;11.60;100.00
64340;BME280;63709;53.258;-8.814;2023-05-29T03:48:25;102991.25;;;11.54;100.00
64340;BME280;63709;53.258;-8.814;2023-05-29T03:50:57;102997.38;;;11.56;100.00
64340;BME280;63709;53.258;-8.814;2023-05-29T03:53:29;103007.44;;;11.51;100.00
64340;BME280;63709;53.258;-8.814;2023-05-29T03:55:56;103009.88;;;11.56;100.00
64340;BME280;63709;53.258;-8.814;2023-05-29T03:58:22;103011.44;;;11.61;100.00
64340;BME280;63709;53.258;-8.814;2023-05-29T04:00:55;103014.97;;;11.42;100.00
64340;BME280;63709;53.258;-8.814;2023-05-29T04:03:22;102987.56;;;11.16;100.00
64340;BME280;63709;53.258;-8.814;2023-05-29T04:05:48;102998.34;;;11.35;100.00
64340;BME280;63709;53.258;-8.814;2023-05-29T04:08:14;103018.31;;;11.26;100.00
64340;BME280;63709;53.258;-8.814;2023-05-29T04:10:40;103013.44;;;11.36;100.00
64340;BME280;63709;53.258;-8.814;2023-05-29T04:13:05;103021.13;;;11.44;100.00
64340;BME280;63709;53.258;-8.814;2023-05-29T04:15:34;103010.47;;;11.22;100.00
64340;BME280;63709;53.258;-8.814;2023-05-29T04:18:00;103003.97;;;11.07;100.00
64340;BME280;63709;53.258;-8.814;2023-05-29T04:20:25;103019.66;;;11.16;100.00
64340;BME280;63709;53.258;-8.814;2023-05-29T04:22:52;103012.69;;;10.90;100.00
64340;BME280;63709;53.258;-8.814;2023-05-29T04:25:17;102992.69;;;10.78;100.00
64340;BME280;63709;53.258;-8.814;2023-05-29T04:27:45;103026.09;;;11.10;100.00
64340;BME280;63709;53.258;-8.814;2023-05-29T04:30:15;103025.38;;;11.07;100.00
64340;BME280;63709;53.258;-8.814;2023-05-29T04:32:42;103019.69;;;11.14;100.00
64340;BME280;63709;53.258;-8.814;2023-05-29T04:35:08;103028.78;;;10.88;100.00
64340;BME280;63709;53.258;-8.814;2023-05-29T04:37:35;103025.13;;;11.13;100.00
64340;BME280;63709;53.258;-8.814;2023-05-29T04:42:38;103033.56;;;11.24;100.00
64340;BME280;63709;53.258;-8.814;2023-05-29T04:45:05;103031.34;;;11.34;100.00
64340;BME280;63709;53.258;-8.814;2023-05-29T04:47:38;103035.63;;;11.38;100.00
64340;BME280;63709;53.258;-8.814;2023-05-29T04:50:10;103031.63;;;11.48;100.00
64340;BME280;63709;53.258;-8.814;2023-05-29T04:52:37;103019.97;;;11.49;100.00
64340;BME280;63709;53.258;-8.814;2023-05-29T04:55:05;103031.25;;;11.57;100.00
64340;BME280;63709;53.258;-8.814;2023-05-29T04:57:31;103031.50;;;11.72;100.00
64340;BME280;63709;53.258;-8.814;2023-05-29T04:59:57;103034.75;;;11.78;100.00
64340;BME280;63709;53.258;-8.814;2023-05-29T05:02:22;103037.25;;;11.83;100.00
64340;BME280;63709;53.258;-8.814;2023-05-29T05:04:49;103020.72;;;11.73;100.00
64340;BME280;63709;53.258;-8.814;2023-05-29T05:07:15;103022.19;;;11.80;100.00
64340;BME280;63709;53.258;-8.814;2023-05-29T05:09:42;103037.19;;;11.84;100.00
64340;BME280;63709;53.258;-8.814;2023-05-29T05:12:09;103038.53;;;11.95;100.00
64340;BME280;63709;53.258;-8.814;2023-05-29T05:14:35;103043.69;;;11.99;100.00
64340;BME280;63709;53.258;-8.814;2023-05-29T05:17:00;103041.00;;;11.99;100.00
64340;BME280;63709;53.258;-8.814;2023-05-29T05:19:27;103042.69;;;12.02;100.00
64340;BME280;63709;53.258;-8.814;2023-05-29T05:21:52;103039.44;;;12.14;100.00
64340;BME280;63709;53.258;-8.814;2023-05-29T05:24:18;103039.91;;;12.03;100.00
64340;BME280;63709;53.258;-8.814;2023-05-29T05:26:46;103027.44;;;11.83;100.00
64340;BME280;63709;53.258;-8.814;2023-05-29T05:29:11;103045.50;;;11.99;100.00
64340;BME280;63709;53.258;-8.814;2023-05-29T05:31:37;103025.81;;;12.00;100.00
64340;BME280;63709;53.258;-8.814;2023-05-29T05:34:02;103025.78;;;12.20;100.00
64340;BME280;63709;53.258;-8.814;2023-05-29T05:36:28;103048.78;;;12.24;100.00
64340;BME280;63709;53.258;-8.814;2023-05-29T05:38:53;103050.50;;;12.25;100.00
64340;BME280;63709;53.258;-8.814;2023-05-29T05:41:19;103051.25;;;12.29;100.00
64340;BME280;63709;53.258;-8.814;2023-05-29T05:43:46;103030.69;;;12.29;100.00
64340;BME280;63709;53.258;-8.814;2023-05-29T05:46:12;103035.69;;;12.37;100.00
64340;BME280;63709;53.258;-8.814;2023-05-29T05:48:40;103049.44;;;12.29;100.00
64340;BME280;63709;53.258;-8.814;2023-05-29T05:51:07;103048.84;;;12.23;100.00
64340;BME280;63709;53.258;-8.814;2023-05-29T05:53:33;103047.63;;;12.30;100.00
64340;BME280;63709;53.258;-8.814;2023-05-29T05:55:58;103042.03;;;12.34;100.00
64340;BME280;63709;53.258;-8.814;2023-05-29T05:58:24;103053.09;;;12.08;100.00
64340;BME280;63709;53.258;-8.814;2023-05-29T06:00:51;103028.84;;;12.11;100.00
64340;BME280;63709;53.258;-8.814;2023-05-29T06:03:19;103051.09;;;12.32;100.00
64340;BME280;63709;53.258;-8.814;2023-05-29T06:05:44;103051.16;;;12.30;100.00
64340;BME280;63709;53.258;-8.814;2023-05-29T06:08:10;103043.56;;;12.40;100.00
64340;BME280;63709;53.258;-8.814;2023-05-29T06:10:36;103026.63;;;12.40;100.00
64340;BME280;63709;53.258;-8.814;2023-05-29T06:13:02;103049.22;;;12.34;100.00
64340;BME280;63709;53.258;-8.814;2023-05-29T06:15:28;103040.97;;;12.39;100.00
64340;BME280;63709;53.258;-8.814;2023-05-29T06:17:54;103044.44;;;12.59;100.00
64340;BME280;63709;53.258;-8.814;2023-05-29T06:20:21;103044.28;;;12.63;100.00
64340;BME280;63709;53.258;-8.814;2023-05-29T06:22:47;103047.72;;;12.47;100.00
64340;BME280;63709;53.258;-8.814;2023-05-29T06:25:16;103040.69;;;12.45;100.00
64340;BME280;63709;53.258;-8.814;2023-05-29T06:27:44;103055.28;;;12.56;100.00
64340;BME280;63709;53.258;-8.814;2023-05-29T06:30:12;103055.09;;;12.61;100.00
64340;BME280;63709;53.258;-8.814;2023-05-29T06:32:38;103056.09;;;12.77;100.00
64340;BME280;63709;53.258;-8.814;2023-05-29T06:35:11;103060.66;;;12.94;100.00
64340;BME280;63709;53.258;-8.814;2023-05-29T06:37:36;103066.97;;;13.11;100.00
64340;BME280;63709;53.258;-8.814;2023-05-29T06:40:07;103066.19;;;13.27;100.00
64340;BME280;63709;53.258;-8.814;2023-05-29T06:42:32;103069.41;;;13.51;100.00
64340;BME280;63709;53.258;-8.814;2023-05-29T06:44:59;103066.94;;;13.64;100.00
64340;BME280;63709;53.258;-8.814;2023-05-29T06:47:24;103065.47;;;13.76;100.00
64340;BME280;63709;53.258;-8.814;2023-05-29T06:49:50;103058.59;;;13.88;100.00
64340;BME280;63709;53.258;-8.814;2023-05-29T06:52:16;103054.78;;;13.92;100.00
64340;BME280;63709;53.258;-8.814;2023-05-29T06:54:41;103066.72;;;14.19;100.00
64340;BME280;63709;53.258;-8.814;2023-05-29T06:57:07;103056.78;;;14.37;100.00
64340;BME280;63709;53.258;-8.814;2023-05-29T06:59:32;103069.06;;;14.25;100.00
64340;BME280;63709;53.258;-8.814;2023-05-29T07:01:58;103071.53;;;14.46;100.00
64340;BME280;63709;53.258;-8.814;2023-05-29T07:04:24;103070.38;;;14.67;100.00
64340;BME280;63709;53.258;-8.814;2023-05-29T07:06:52;103068.84;;;14.46;100.00
64340;BME280;63709;53.258;-8.814;2023-05-29T07:09:18;103051.28;;;14.56;100.00
64340;BME280;63709;53.258;-8.814;2023-05-29T07:11:44;103079.91;;;14.89;100.00
64340;BME280;63709;53.258;-8.814;2023-05-29T07:14:10;103070.03;;;14.89;100.00
64340;BME280;63709;53.258;-8.814;2023-05-29T07:16:37;103070.00;;;15.05;100.00
64340;BME280;63709;53.258;-8.814;2023-05-29T07:19:02;103069.53;;;15.29;100.00
64340;BME280;63709;53.258;-8.814;2023-05-29T07:21:29;103054.31;;;15.13;100.00
64340;BME280;63709;53.258;-8.814;2023-05-29T07:23:57;103061.91;;;15.51;100.00
64340;BME280;63709;53.258;-8.814;2023-05-29T07:26:23;103046.53;;;15.23;100.00
64340;BME280;63709;53.258;-8.814;2023-05-29T07:28:50;103064.47;;;15.38;100.00
64340;BME280;63709;53.258;-8.814;2023-05-29T07:31:15;103049.16;;;15.24;100.00
64340;BME280;63709;53.258;-8.814;2023-05-29T07:33:42;103067.53;;;15.32;100.00
64340;BME280;63709;53.258;-8.814;2023-05-29T07:36:07;103062.44;;;15.58;100.00
64340;BME280;63709;53.258;-8.814;2023-05-29T07:38:33;103062.00;;;15.49;100.00
64340;BME280;63709;53.258;-8.814;2023-05-29T07:40:59;103056.50;;;15.67;100.00
64340;BME280;63709;53.258;-8.814;2023-05-29T07:43:24;103073.72;;;15.79;100.00
64340;BME280;63709;53.258;-8.814;2023-05-29T07:45:50;103051.63;;;15.73;100.00
64340;BME280;63709;53.258;-8.814;2023-05-29T07:48:15;103047.63;;;15.65;100.00
64340;BME280;63709;53.258;-8.814;2023-05-29T07:50:40;103063.06;;;15.77;100.00
64340;BME280;63709;53.258;-8.814;2023-05-29T07:53:06;103050.28;;;15.81;100.00
64340;BME280;63709;53.258;-8.814;2023-05-29T07:55:34;103058.97;;;16.14;100.00
64340;BME280;63709;53.258;-8.814;2023-05-29T07:58:00;103066.06;;;16.15;100.00
64340;BME280;63709;53.258;-8.814;2023-05-29T08:00:28;103065.09;;;16.45;100.00
64340;BME280;63709;53.258;-8.814;2023-05-29T08:02:54;103064.53;;;16.40;100.00
64340;BME280;63709;53.258;-8.814;2023-05-29T08:05:20;103056.63;;;16.37;100.00
64340;BME280;63709;53.258;-8.814;2023-05-29T08:07:46;103051.44;;;16.48;100.00
64340;BME280;63709;53.258;-8.814;2023-05-29T08:10:13;103033.91;;;15.98;100.00
64340;BME280;63709;53.258;-8.814;2023-05-29T08:12:40;103060.13;;;16.39;100.00
64340;BME280;63709;53.258;-8.814;2023-05-29T08:15:07;103060.31;;;16.36;100.00
64340;BME280;63709;53.258;-8.814;2023-05-29T08:17:33;103062.75;;;16.67;100.00
64340;BME280;63709;53.258;-8.814;2023-05-29T08:20:04;103068.56;;;16.61;100.00
64340;BME280;63709;53.258;-8.814;2023-05-29T08:22:32;103059.00;;;16.84;100.00
64340;BME280;63709;53.258;-8.814;2023-05-29T08:24:59;103046.41;;;16.98;100.00
64340;BME280;63709;53.258;-8.814;2023-05-29T08:27:25;103055.94;;;17.03;100.00
64340;BME280;63709;53.258;-8.814;2023-05-29T08:29:51;103062.09;;;17.05;100.00
64340;BME280;63709;53.258;-8.814;2023-05-29T08:32:18;103061.50;;;17.14;100.00
64340;BME280;63709;53.258;-8.814;2023-05-29T08:34:44;103058.38;;;17.21;100.00
64340;BME280;63709;53.258;-8.814;2023-05-29T08:37:10;103053.25;;;17.03;100.00
64340;BME280;63709;53.258;-8.814;2023-05-29T08:39:36;103060.03;;;17.09;100.00
64340;BME280;63709;53.258;-8.814;2023-05-29T08:42:13;103055.84;;;17.45;100.00
64340;BME280;63709;53.258;-8.814;2023-05-29T08:44:46;103061.41;;;17.02;100.00
64340;BME280;63709;53.258;-8.814;2023-05-29T08:47:13;103052.19;;;17.06;100.00
64340;BME280;63709;53.258;-8.814;2023-05-29T08:49:45;103062.97;;;17.06;100.00
64340;BME280;63709;53.258;-8.814;2023-05-29T08:52:17;103063.22;;;17.15;100.00
64340;BME280;63709;53.258;-8.814;2023-05-29T08:54:44;103037.47;;;17.50;100.00
64340;BME280;63709;53.258;-8.814;2023-05-29T08:57:10;103049.47;;;17.46;100.00
64340;BME280;63709;53.258;-8.814;2023-05-29T08:59:37;103047.22;;;17.52;100.00
64340;BME280;63709;53.258;-8.814;2023-05-29T09:02:05;103048.41;;;17.61;100.00
64340;BME280;63709;53.258;-8.814;2023-05-29T09:04:32;103037.13;;;17.81;100.00
64340;BME280;63709;53.258;-8.814;2023-05-29T09:06:58;103048.66;;;18.09;100.00
64340;BME280;63709;53.258;-8.814;2023-05-29T09:09:29;103057.28;;;17.63;100.00
64340;BME280;63709;53.258;-8.814;2023-05-29T09:11:57;103043.06;;;17.86;100.00
64340;BME280;63709;53.258;-8.814;2023-05-29T09:14:35;103031.16;;;17.89;100.00
64340;BME280;63709;53.258;-8.814;2023-05-29T09:17:02;103041.97;;;18.14;100.00
64340;BME280;63709;53.258;-8.814;2023-05-29T09:19:29;103045.28;;;18.31;100.00
64340;BME280;63709;53.258;-8.814;2023-05-29T09:22:07;103045.44;;;18.04;100.00
64340;BME280;63709;53.258;-8.814;2023-05-29T09:24:34;103028.78;;;18.10;100.00
64340;BME280;63709;53.258;-8.814;2023-05-29T09:27:02;103042.84;;;18.02;100.00
64340;BME280;63709;53.258;-8.814;2023-05-29T09:29:33;103045.19;;;18.20;100.00
64340;BME280;63709;53.258;-8.814;2023-05-29T09:31:59;103047.03;;;18.32;100.00
64340;BME280;63709;53.258;-8.814;2023-05-29T09:34:30;103044.56;;;18.66;100.00
64340;BME280;63709;53.258;-8.814;2023-05-29T09:37:03;103037.16;;;18.31;100.00
64340;BME280;63709;53.258;-8.814;2023-05-29T09:39:49;103030.50;;;18.60;100.00
64340;BME280;63709;53.258;-8.814;2023-05-29T09:42:17;103040.00;;;18.79;100.00
64340;BME280;63709;53.258;-8.814;2023-05-29T09:44:53;103031.00;;;18.78;100.00
64340;BME280;63709;53.258;-8.814;2023-05-29T09:47:20;103022.81;;;19.15;100.00
64340;BME280;63709;53.258;-8.814;2023-05-29T09:49:50;103029.53;;;19.33;100.00
64340;BME280;63709;53.258;-8.814;2023-05-29T09:52:21;103009.84;;;19.43;100.00
64340;BME280;63709;53.258;-8.814;2023-05-29T09:54:48;103030.91;;;19.86;100.00
64340;BME280;63709;53.258;-8.814;2023-05-29T09:57:21;103023.88;;;19.94;100.00
64340;BME280;63709;53.258;-8.814;2023-05-29T09:59:49;103025.38;;;19.98;100.00
64340;BME280;63709;53.258;-8.814;2023-05-29T10:02:17;103015.28;;;20.12;100.00
64340;BME280;63709;53.258;-8.814;2023-05-29T10:04:43;103016.47;;;20.41;100.00
64340;BME280;63709;53.258;-8.814;2023-05-29T10:07:27;103006.72;;;20.39;100.00
64340;BME280;63709;53.258;-8.814;2023-05-29T10:10:07;103005.63;;;21.17;100.00
64340;BME280;63709;53.258;-8.814;2023-05-29T10:12:38;103005.47;;;21.50;100.00
64340;BME280;63709;53.258;-8.814;2023-05-29T10:15:13;102997.91;;;21.75;100.00
64340;BME280;63709;53.258;-8.814;2023-05-29T10:17:51;102994.41;;;22.15;100.00
64340;BME280;63709;53.258;-8.814;2023-05-29T10:20:20;103005.50;;;22.42;100.00
64340;BME280;63709;53.258;-8.814;2023-05-29T10:22:50;103007.44;;;22.71;100.00
64340;BME280;63709;53.258;-8.814;2023-05-29T10:25:18;103008.91;;;23.33;100.00
64340;BME280;63709;53.258;-8.814;2023-05-29T10:27:47;103003.38;;;23.72;100.00
64340;BME280;63709;53.258;-8.814;2023-05-29T10:36:16;102993.28;;;23.92;93.90
64340;BME280;63709;53.258;-8.814;2023-05-29T10:38:47;102998.91;;;24.46;89.83
64340;BME280;63709;53.258;-8.814;2023-05-29T10:43:59;103012.19;;;24.03;85.79
64340;BME280;63709;53.258;-8.814;2023-05-29T10:49:20;103005.69;;;24.32;89.64
64340;BME280;63709;53.258;-8.814;2023-05-29T10:51:47;103001.16;;;24.23;88.81
64340;BME280;63709;53.258;-8.814;2023-05-29T10:54:15;102987.59;;;24.41;89.07
64340;BME280;63709;53.258;-8.814;2023-05-29T10:56:44;103002.44;;;24.56;92.29
64340;BME280;63709;53.258;-8.814;2023-05-29T10:59:10;103009.00;;;24.35;87.36
64340;BME280;63709;53.258;-8.814;2023-05-29T11:01:40;103010.25;;;24.13;89.51
64340;BME280;63709;53.258;-8.814;2023-05-29T11:06:47;102996.44;;;25.24;86.87
64340;BME280;63709;53.258;-8.814;2023-05-29T11:09:32;102994.03;;;24.67;82.74
64340;BME280;63709;53.258;-8.814;2023-05-29T11:12:12;102973.72;;;24.87;84.25
64340;BME280;63709;53.258;-8.814;2023-05-29T11:15:00;102984.34;;;25.26;91.02
64340;BME280;63709;53.258;-8.814;2023-05-29T11:17:31;102983.09;;;25.47;83.45
64340;BME280;63709;53.258;-8.814;2023-05-29T11:20:00;102966.25;;;25.51;82.99
64340;BME280;63709;53.258;-8.814;2023-05-29T11:22:34;102974.75;;;25.22;80.65
64340;BME280;63709;53.258;-8.814;2023-05-29T11:25:09;102976.16;;;25.78;83.49
64340;BME280;63709;53.258;-8.814;2023-05-29T11:27:37;102972.25;;;25.55;80.30
64340;BME280;63709;53.258;-8.814;2023-05-29T11:30:04;102957.75;;;25.63;77.16
64340;BME280;63709;53.258;-8.814;2023-05-29T11:32:34;102982.44;;;26.05;81.98
64340;BME280;63709;53.258;-8.814;2023-05-29T11:35:09;102981.22;;;25.73;79.48
64340;BME280;63709;53.258;-8.814;2023-05-29T11:37:37;102972.53;;;25.78;77.07
64340;BME280;63709;53.258;-8.814;2023-05-29T11:40:05;102962.47;;;25.52;78.06
64340;BME280;63709;53.258;-8.814;2023-05-29T11:42:36;102976.91;;;25.63;78.17
64340;BME280;63709;53.258;-8.814;2023-05-29T11:45:16;102970.28;;;25.99;79.81
64340;BME280;63709;53.258;-8.814;2023-05-29T11:48:00;102968.19;;;25.93;78.23
64340;BME280;63709;53.258;-8.814;2023-05-29T11:50:33;102961.59;;;26.12;80.85
64340;BME280;63709;53.258;-8.814;2023-05-29T11:53:00;102956.84;;;26.14;75.43
64340;BME280;63709;53.258;-8.814;2023-05-29T11:55:27;102969.25;;;26.51;74.24
64340;BME280;63709;53.258;-8.814;2023-05-29T11:58:00;102966.91;;;26.64;71.64
64340;BME280;63709;53.258;-8.814;2023-05-29T12:00:34;102946.16;;;26.03;69.29
64340;BME280;63709;53.258;-8.814;2023-05-29T12:03:04;102965.03;;;26.81;68.75
64340;BME280;63709;53.258;-8.814;2023-05-29T12:05:50;102969.50;;;26.15;67.26
64340;BME280;63709;53.258;-8.814;2023-05-29T12:08:24;102964.47;;;26.53;71.85
64340;BME280;63709;53.258;-8.814;2023-05-29T12:10:52;102966.06;;;26.72;62.82
64340;BME280;63709;53.258;-8.814;2023-05-29T12:13:22;102971.75;;;27.27;70.28
64340;BME280;63709;53.258;-8.814;2023-05-29T12:15:57;102942.09;;;26.82;67.08
64340;BME280;63709;53.258;-8.814;2023-05-29T12:18:28;102960.41;;;26.15;65.23
64340;BME280;63709;53.258;-8.814;2023-05-29T12:21:03;102974.34;;;25.69;65.72
64340;BME280;63709;53.258;-8.814;2023-05-29T12:23:29;102983.44;;;25.70;65.80
64340;BME280;63709;53.258;-8.814;2023-05-29T12:25:57;102965.06;;;25.62;67.32
64340;BME280;63709;53.258;-8.814;2023-05-29T12:28:25;102957.22;;;25.85;69.19
64340;BME280;63709;53.258;-8.814;2023-05-29T12:30:58;102957.31;;;26.18;66.15
64340;BME280;63709;53.258;-8.814;2023-05-29T12:33:33;102959.88;;;26.62;64.62
64340;BME280;63709;53.258;-8.814;2023-05-29T12:36:09;102960.72;;;26.62;62.14
64340;BME280;63709;53.258;-8.814;2023-05-29T12:38:51;102958.19;;;27.01;58.14
64340;BME280;63709;53.258;-8.814;2023-05-29T12:41:33;102943.00;;;27.71;60.68
64340;BME280;63709;53.258;-8.814;2023-05-29T12:44:01;102955.69;;;28.19;57.30
64340;BME280;63709;53.258;-8.814;2023-05-29T12:46:34;102938.97;;;27.98;56.44
64340;BME280;63709;53.258;-8.814;2023-05-29T12:49:16;102961.25;;;27.56;55.81
64340;BME280;63709;53.258;-8.814;2023-05-29T12:51:46;102946.38;;;26.85;57.51
64340;BME280;63709;53.258;-8.814;2023-05-29T12:54:15;102961.47;;;27.13;59.07
64340;BME280;63709;53.258;-8.814;2023-05-29T12:56:42;102958.50;;;26.58;56.92
64340;BME280;63709;53.258;-8.814;2023-05-29T12:59:08;102947.53;;;26.58;56.01
64340;BME280;63709;53.258;-8.814;2023-05-29T13:01:36;102949.44;;;26.98;57.39
64340;BME280;63709;53.258;-8.814;2023-05-29T13:04:06;102948.25;;;27.00;56.38
64340;BME280;63709;53.258;-8.814;2023-05-29T13:06:39;102951.69;;;26.70;58.13